createdAt,value
2018-03-06T00:00:10.678Z,11.33
2018-03-06T00:02:38.253Z,11.57
2018-03-06T00:05:06.586Z,10.60
2018-03-06T00:07:34.235Z,10.93
2018-03-06T00:10:01.906Z,11.23
2018-03-06T00:12:29.488Z,10.00
2018-03-06T00:14:57.059Z,10.87
2018-03-06T00:17:24.624Z,10.47
2018-03-06T00:19:52.585Z,9.70
2018-03-06T00:22:20.162Z,9.77
2018-03-06T00:24:47.854Z,9.53
2018-03-06T00:27:15.422Z,10.00
2018-03-06T00:29:42.978Z,9.47
2018-03-06T00:32:10.657Z,9.87
2018-03-06T00:34:38.235Z,10.00
2018-03-06T00:37:05.828Z,9.87
2018-03-06T00:39:33.389Z,9.30
2018-03-06T00:42:01.737Z,9.43
2018-03-06T00:44:29.319Z,8.93
2018-03-06T00:46:57.670Z,8.63
2018-03-06T00:49:25.228Z,9.20
2018-03-06T00:51:52.776Z,9.00
2018-03-06T00:54:20.436Z,9.27
2018-03-06T00:56:48.029Z,8.77
2018-03-06T00:59:15.614Z,8.90
2018-03-06T01:01:43.192Z,8.97
2018-03-06T01:04:10.759Z,8.43
2018-03-06T01:06:38.472Z,9.40
2018-03-06T01:09:06.071Z,9.17
2018-03-06T01:11:33.667Z,8.20
2018-03-06T01:14:01.996Z,8.47
2018-03-06T01:16:29.601Z,8.20
2018-03-06T01:18:57.173Z,7.87
2018-03-06T01:21:24.780Z,8.33
2018-03-06T01:23:52.359Z,7.90
2018-03-06T01:26:19.936Z,8.03
2018-03-06T01:28:47.503Z,7.63
2018-03-06T01:31:15.092Z,7.57
2018-03-06T01:33:42.669Z,7.83
2018-03-06T01:36:10.235Z,7.77
2018-03-06T01:38:37.950Z,7.50
2018-03-06T01:41:05.523Z,7.60
2018-03-06T01:43:33.106Z,6.77
2018-03-06T01:46:00.794Z,7.17
2018-03-06T01:48:28.371Z,7.80
2018-03-06T01:50:56.718Z,7.43
2018-03-06T01:53:24.287Z,6.30
2018-03-06T01:55:51.847Z,7.67
2018-03-06T01:58:19.423Z,7.20
2018-03-06T02:00:47.072Z,7.10
2018-03-06T02:03:14.637Z,7.20
2018-03-06T02:05:42.200Z,7.10
2018-03-06T02:08:09.875Z,7.13
2018-03-06T02:10:37.471Z,7.20
2018-03-06T02:13:05.055Z,7.07
2018-03-06T02:15:32.623Z,7.00
2018-03-06T02:18:00.317Z,7.00
2018-03-06T02:20:27.885Z,6.57
2018-03-06T02:22:55.764Z,6.87
2018-03-06T02:25:23.329Z,6.30
2018-03-06T02:27:50.931Z,6.80
2018-03-06T02:30:18.495Z,6.83
2018-03-06T02:32:46.067Z,6.57
2018-03-06T02:35:13.675Z,6.70
2018-03-06T02:37:42.084Z,6.27
2018-03-06T02:40:09.646Z,7.20
2018-03-06T02:42:37.221Z,6.30
2018-03-06T02:45:04.804Z,6.17
2018-03-06T02:47:32.375Z,6.20
2018-03-06T02:49:59.985Z,6.37
2018-03-06T02:52:28.335Z,6.30
2018-03-06T02:54:55.911Z,6.73
2018-03-06T02:57:23.481Z,6.37
2018-03-06T02:59:51.050Z,6.60
2018-03-06T03:02:18.625Z,6.20
2018-03-06T03:04:46.997Z,6.50
2018-03-06T03:07:14.556Z,6.40
2018-03-06T03:09:42.228Z,6.40
2018-03-06T03:12:09.805Z,6.50
2018-03-06T03:14:38.295Z,6.20
2018-03-06T03:17:07.016Z,5.90
2018-03-06T03:19:34.685Z,6.10
2018-03-06T03:22:02.242Z,6.47
2018-03-06T03:24:29.813Z,5.90
2018-03-06T03:26:57.375Z,6.03
2018-03-06T03:29:25.003Z,5.30
2018-03-06T03:31:52.568Z,5.53
2018-03-06T03:34:20.283Z,5.17
2018-03-06T03:36:47.851Z,5.80
2018-03-06T03:39:15.403Z,5.77
2018-03-06T03:41:43.744Z,6.17
2018-03-06T03:44:11.308Z,5.13
2018-03-06T03:46:38.882Z,6.03
2018-03-06T03:49:06.456Z,5.97
2018-03-06T03:51:34.047Z,5.13
2018-03-06T03:54:01.649Z,5.33
2018-03-06T03:56:29.318Z,5.80
2018-03-06T03:58:56.879Z,5.50
2018-03-06T04:01:24.464Z,5.97
2018-03-06T04:03:52.018Z,5.30
2018-03-06T04:06:19.619Z,5.23
2018-03-06T04:08:47.198Z,5.17
2018-03-06T04:11:15.534Z,5.33
2018-03-06T04:13:43.115Z,5.60
2018-03-06T04:16:10.676Z,5.57
2018-03-06T04:18:38.268Z,4.80
2018-03-06T04:21:05.837Z,5.50
2018-03-06T04:23:33.391Z,5.53
2018-03-06T04:26:00.958Z,5.27
2018-03-06T04:28:28.525Z,5.20
2018-03-06T04:30:56.219Z,4.90
2018-03-06T04:33:24.553Z,5.50
2018-03-06T04:35:52.121Z,5.33
2018-03-06T04:38:19.678Z,5.27
2018-03-06T04:40:47.254Z,5.23
2018-03-06T04:43:14.845Z,5.13
2018-03-06T04:45:42.479Z,5.80
2018-03-06T04:48:10.053Z,5.53
2018-03-06T04:50:37.645Z,5.07
2018-03-06T04:53:05.225Z,5.37
2018-03-06T04:55:33.604Z,5.20
2018-03-06T04:58:01.937Z,4.97
2018-03-06T05:00:29.591Z,5.40
2018-03-06T05:02:57.158Z,5.20
2018-03-06T05:05:24.732Z,4.90
2018-03-06T05:07:52.337Z,5.00
2018-03-06T05:10:19.994Z,5.17
2018-03-06T05:12:47.578Z,4.53
2018-03-06T05:15:15.148Z,5.07
2018-03-06T05:17:42.712Z,4.97
2018-03-06T05:20:10.306Z,5.10
2018-03-06T05:22:37.867Z,6.03
2018-03-06T05:25:05.452Z,5.20
2018-03-06T05:27:33.069Z,5.60
2018-03-06T05:30:00.654Z,5.73
2018-03-06T05:32:29.086Z,5.70
2018-03-06T05:34:56.669Z,6.30
2018-03-06T05:37:24.239Z,6.20
2018-03-06T05:39:51.810Z,5.53
2018-03-06T05:42:19.369Z,5.80
2018-03-06T05:44:46.967Z,5.60
2018-03-06T05:47:15.294Z,7.20
2018-03-06T05:49:42.873Z,11.53
2018-03-06T05:52:10.452Z,18.57
2018-03-06T05:54:38.017Z,25.17
2018-03-06T05:57:05.643Z,24.70
2018-03-06T05:59:33.331Z,23.57
2018-03-06T06:02:00.928Z,22.10
2018-03-06T06:04:28.518Z,21.63
2018-03-06T06:06:56.869Z,20.80
2018-03-06T06:09:24.788Z,19.83
2018-03-06T06:11:52.366Z,21.23
2018-03-06T06:14:19.989Z,22.37
2018-03-06T06:16:47.554Z,23.77
2018-03-06T06:19:15.137Z,23.20
2018-03-06T06:21:43.541Z,21.93
2018-03-06T06:24:12.037Z,25.07
2018-03-06T06:26:39.681Z,23.87
2018-03-06T06:29:08.065Z,24.70
2018-03-06T06:31:36.419Z,24.23
2018-03-06T06:34:03.996Z,24.97
2018-03-06T06:36:31.565Z,23.33
2018-03-06T06:38:59.128Z,24.07
2018-03-06T06:41:26.704Z,21.53
2018-03-06T06:43:55.049Z,22.00
2018-03-06T06:46:22.620Z,23.60
2018-03-06T06:48:50.184Z,21.50
2018-03-06T06:51:17.900Z,22.23
2018-03-06T06:53:46.256Z,22.03
2018-03-06T06:56:13.824Z,21.20
2018-03-06T06:58:42.193Z,20.37
2018-03-06T07:01:09.780Z,19.90
2018-03-06T07:03:37.488Z,19.13
2018-03-06T07:06:05.139Z,18.80
2018-03-06T07:08:33.474Z,19.60
2018-03-06T07:11:01.070Z,19.07
2018-03-06T07:13:28.652Z,19.40
2018-03-06T07:15:56.979Z,18.97
2018-03-06T07:18:24.548Z,19.13
2018-03-06T07:20:52.128Z,18.83
2018-03-06T07:23:20.074Z,17.13
2018-03-06T07:25:47.646Z,18.23
2018-03-06T07:28:15.350Z,17.80
2018-03-06T07:30:42.924Z,16.73
2018-03-06T07:33:10.494Z,17.23
2018-03-06T07:35:38.862Z,17.07
2018-03-06T07:38:06.448Z,16.70
2018-03-06T07:40:34.791Z,16.47
2018-03-06T07:43:02.355Z,15.90
2018-03-06T07:45:30.094Z,16.33
2018-03-06T07:47:57.693Z,16.27
2018-03-06T07:50:25.346Z,15.43
2018-03-06T07:52:53.021Z,15.53
2018-03-06T07:55:20.592Z,15.07
2018-03-06T07:57:48.179Z,14.03
2018-03-06T08:00:15.817Z,14.80
2018-03-06T08:02:43.374Z,14.40
2018-03-06T08:05:10.954Z,14.13
2018-03-06T08:07:38.527Z,14.70
2018-03-06T08:10:06.149Z,14.03
2018-03-06T08:12:34.136Z,13.43
2018-03-06T08:15:01.706Z,14.00
2018-03-06T08:17:30.151Z,13.27
2018-03-06T08:19:57.725Z,13.00
2018-03-06T08:22:26.157Z,11.80
2018-03-06T08:24:53.753Z,12.23
2018-03-06T08:27:21.318Z,12.83
2018-03-06T08:29:48.900Z,12.07
2018-03-06T08:32:16.459Z,11.93
2018-03-06T08:34:44.019Z,11.73
2018-03-06T08:37:11.594Z,11.93
2018-03-06T08:39:39.917Z,11.47
2018-03-06T08:42:07.492Z,11.70
2018-03-06T08:44:35.107Z,12.17
2018-03-06T08:47:02.689Z,10.87
2018-03-06T08:49:31.132Z,10.70
2018-03-06T08:51:58.694Z,11.47
2018-03-06T08:54:26.336Z,11.10
2018-03-06T08:56:53.916Z,11.80
2018-03-06T08:59:21.575Z,10.83
2018-03-06T09:01:49.167Z,10.97
2018-03-06T09:04:16.782Z,10.53
2018-03-06T09:06:45.127Z,10.90
2018-03-06T09:09:12.693Z,10.83
2018-03-06T09:11:40.271Z,10.27
2018-03-06T09:14:07.868Z,9.97
2018-03-06T09:16:36.200Z,9.63
2018-03-06T09:19:03.771Z,9.67
2018-03-06T09:21:31.349Z,10.00
2018-03-06T09:23:58.909Z,10.63
2018-03-06T09:26:26.495Z,9.27
2018-03-06T09:28:54.086Z,10.90
2018-03-06T09:31:22.408Z,9.53
2018-03-06T09:33:49.965Z,10.23
2018-03-06T09:36:17.538Z,10.23
2018-03-06T09:38:45.176Z,9.63
2018-03-06T09:41:12.746Z,9.73
2018-03-06T09:43:40.313Z,9.57
2018-03-06T09:46:07.886Z,9.27
2018-03-06T09:48:35.451Z,8.57
2018-03-06T09:51:03.878Z,9.30
2018-03-06T09:53:32.285Z,8.77
2018-03-06T09:56:00.613Z,9.70
2018-03-06T09:58:28.187Z,8.87
2018-03-06T10:00:55.754Z,9.33
2018-03-06T10:03:23.341Z,8.73
2018-03-06T10:05:50.908Z,8.97
2018-03-06T10:08:18.467Z,8.97
2018-03-06T10:10:46.039Z,8.07
2018-03-06T10:13:13.602Z,9.17
2018-03-06T10:15:41.327Z,9.03
2018-03-06T10:18:08.899Z,8.17
2018-03-06T10:20:36.490Z,8.33
2018-03-06T10:23:04.092Z,8.20
2018-03-06T10:25:32.429Z,9.17
2018-03-06T10:28:00.013Z,8.27
2018-03-06T10:30:27.588Z,8.93
2018-03-06T10:32:55.145Z,8.33
2018-03-06T10:35:23.533Z,8.43
2018-03-06T10:37:51.081Z,8.40
2018-03-06T10:40:18.679Z,8.40
2018-03-06T10:42:46.258Z,8.53
2018-03-06T10:45:14.586Z,8.53
2018-03-06T10:47:42.124Z,8.67
2018-03-06T10:50:09.699Z,7.60
2018-03-06T10:52:37.286Z,8.33
2018-03-06T10:55:04.856Z,8.13
2018-03-06T10:57:32.447Z,8.17
2018-03-06T11:00:00.150Z,7.37
2018-03-06T11:02:31.629Z,8.60
2018-03-06T11:04:59.376Z,8.17
2018-03-06T11:07:26.956Z,8.00
2018-03-06T11:09:54.522Z,7.47
2018-03-06T11:12:22.118Z,8.20
2018-03-06T11:14:49.700Z,8.30
2018-03-06T11:17:17.297Z,8.03
2018-03-06T11:19:45.617Z,7.60
2018-03-06T11:22:13.194Z,7.97
2018-03-06T11:24:40.765Z,7.47
2018-03-06T11:27:08.331Z,7.90
2018-03-06T11:29:36.252Z,7.67
2018-03-06T11:32:04.591Z,7.57
2018-03-06T11:34:32.182Z,8.30
2018-03-06T11:36:59.747Z,8.37
2018-03-06T11:39:28.381Z,8.47
2018-03-06T11:41:55.964Z,7.67
2018-03-06T11:44:23.522Z,7.43
2018-03-06T11:46:51.096Z,7.07
2018-03-06T11:49:18.661Z,7.20
2018-03-06T11:51:46.325Z,7.70
2018-03-06T11:54:14.642Z,7.57
2018-03-06T11:56:42.211Z,7.37
2018-03-06T11:59:09.765Z,7.60
2018-03-06T12:01:37.353Z,7.53
2018-03-06T12:04:04.924Z,7.17
2018-03-06T12:06:33.284Z,7.30
2018-03-06T12:09:00.841Z,7.07
2018-03-06T12:11:28.413Z,7.60
2018-03-06T12:13:55.994Z,6.90
2018-03-06T12:16:23.562Z,7.40
2018-03-06T12:18:51.189Z,7.57
2018-03-06T12:21:18.753Z,7.23
2018-03-06T12:23:46.320Z,7.03
2018-03-06T12:26:14.667Z,7.17
2018-03-06T12:28:43.161Z,7.23
2018-03-06T12:31:10.746Z,7.13
2018-03-06T12:33:38.321Z,6.20
2018-03-06T12:36:05.995Z,6.70
2018-03-06T12:38:33.582Z,6.30
2018-03-06T12:41:01.165Z,7.23
2018-03-06T12:43:29.517Z,7.17
2018-03-06T12:45:57.092Z,6.20
2018-03-06T12:48:24.667Z,7.20
2018-03-06T12:50:52.257Z,6.87
2018-03-06T12:53:20.582Z,6.53
2018-03-06T12:55:48.159Z,6.63
2018-03-06T12:58:15.725Z,6.27
2018-03-06T13:00:43.282Z,6.93
2018-03-06T13:03:10.865Z,5.67
2018-03-06T13:05:38.452Z,6.47
2018-03-06T13:08:06.041Z,6.20
2018-03-06T13:10:34.382Z,6.30
2018-03-06T13:13:01.951Z,6.80
2018-03-06T13:15:29.518Z,6.17
2018-03-06T13:17:57.080Z,6.47
2018-03-06T13:20:24.656Z,6.30
2018-03-06T13:22:52.996Z,5.93
2018-03-06T13:25:20.584Z,6.80
2018-03-06T13:27:48.129Z,6.27
2018-03-06T13:30:15.699Z,6.43
2018-03-06T13:32:43.291Z,6.27
2018-03-06T13:35:10.845Z,6.27
2018-03-06T13:37:38.428Z,34.97
2018-03-06T13:40:05.987Z,13.57
2018-03-06T13:42:33.564Z,20.30
2018-03-06T13:45:01.185Z,13.17
2018-03-06T13:47:28.856Z,11.43
2018-03-06T13:49:56.521Z,11.67
2018-03-06T13:52:24.132Z,11.33
2018-03-06T13:54:51.689Z,10.90
2018-03-06T13:57:19.282Z,10.77
2018-03-06T13:59:46.873Z,10.07
2018-03-06T14:02:15.217Z,11.07
2018-03-06T14:04:42.791Z,10.20
2018-03-06T14:07:10.375Z,9.73
2018-03-06T14:09:38.881Z,10.10
2018-03-06T14:12:06.466Z,9.50
2018-03-06T14:14:34.079Z,9.53
2018-03-06T14:17:01.652Z,9.67
2018-03-06T14:19:29.210Z,8.93
2018-03-06T14:21:56.827Z,9.47
2018-03-06T14:24:24.418Z,8.57
2018-03-06T14:26:51.953Z,8.30
2018-03-06T14:29:19.505Z,8.63
2018-03-06T14:31:47.094Z,9.13
2018-03-06T14:34:15.034Z,8.27
2018-03-06T14:36:44.219Z,8.30
2018-03-06T14:39:11.899Z,8.17
2018-03-06T14:41:40.237Z,8.67
2018-03-06T14:44:07.836Z,7.77
2018-03-06T14:46:35.434Z,7.77
2018-03-06T14:49:03.003Z,7.33
2018-03-06T14:51:30.575Z,7.47
2018-03-06T14:53:58.148Z,6.97
2018-03-06T14:56:25.796Z,7.10
2018-03-06T14:58:53.387Z,6.90
2018-03-06T15:01:20.959Z,7.40
2018-03-06T15:03:48.523Z,7.00
2018-03-06T15:06:16.103Z,7.23
2018-03-06T15:08:43.691Z,16.47
2018-03-06T15:11:11.374Z,15.17
2018-03-06T15:13:38.937Z,11.53
2018-03-06T15:16:07.283Z,9.87
2018-03-06T15:18:34.864Z,8.50
2018-03-06T15:21:02.438Z,8.87
2018-03-06T15:23:30.155Z,9.07
2018-03-06T15:25:58.133Z,8.67
2018-03-06T15:28:25.700Z,8.60
2018-03-06T15:30:53.275Z,8.93
2018-03-06T15:33:20.854Z,8.70
2018-03-06T15:35:48.540Z,8.03
2018-03-06T15:38:16.116Z,8.57
2018-03-06T15:40:43.684Z,8.13
2018-03-06T15:43:11.344Z,8.17
2018-03-06T15:45:39.840Z,8.50
2018-03-06T15:48:07.508Z,7.63
2018-03-06T15:50:35.072Z,8.00
2018-03-06T15:53:02.682Z,7.50
2018-03-06T15:55:30.259Z,8.13
2018-03-06T15:57:57.822Z,7.93
2018-03-06T16:00:25.519Z,8.33
2018-03-06T16:02:53.095Z,8.03
2018-03-06T16:05:20.664Z,7.70
2018-03-06T16:07:48.251Z,6.83
2018-03-06T16:10:16.583Z,8.13
2018-03-06T16:12:44.178Z,7.87
2018-03-06T16:15:11.757Z,8.63
2018-03-06T16:17:39.331Z,7.57
2018-03-06T16:20:06.904Z,7.87
2018-03-06T16:22:35.261Z,7.33
2018-03-06T16:25:02.864Z,7.57
2018-03-06T16:27:31.216Z,7.57
2018-03-06T16:29:58.798Z,6.90
2018-03-06T16:32:26.347Z,7.47
2018-03-06T16:34:54.679Z,7.50
2018-03-06T16:37:22.325Z,7.37
2018-03-06T16:39:50.668Z,7.57
2018-03-06T16:42:18.232Z,8.30
2018-03-06T16:44:45.870Z,7.47
2018-03-06T16:47:13.446Z,7.03
2018-03-06T16:49:41.039Z,7.00
2018-03-06T16:52:08.604Z,6.93
2018-03-06T16:54:36.162Z,6.90
2018-03-06T16:57:03.727Z,7.30
2018-03-06T16:59:31.290Z,6.43
2018-03-06T17:01:58.903Z,6.30
2018-03-06T17:04:27.240Z,6.80
2018-03-06T17:06:54.842Z,7.00
2018-03-06T17:09:22.434Z,7.07
2018-03-06T17:11:50.022Z,6.87
2018-03-06T17:14:17.638Z,7.20
2018-03-06T17:16:46.131Z,6.70
2018-03-06T17:19:13.757Z,7.00
2018-03-06T17:21:41.308Z,7.03
2018-03-06T17:24:08.886Z,7.40
2018-03-06T17:26:36.526Z,6.57
2018-03-06T17:29:04.094Z,6.43
2018-03-06T17:31:31.704Z,6.30
2018-03-06T17:33:59.302Z,6.40
2018-03-06T17:36:27.626Z,8.03
2018-03-06T17:38:55.212Z,8.07
2018-03-06T17:41:22.788Z,6.20
2018-03-06T17:43:50.379Z,6.37
2018-03-06T17:46:18.727Z,6.47
2018-03-06T17:48:46.316Z,7.30
2018-03-06T17:51:13.933Z,7.70
2018-03-06T17:53:41.507Z,7.50
2018-03-06T17:56:09.130Z,6.50
2018-03-06T17:58:36.673Z,6.77
2018-03-06T18:01:04.243Z,7.60
2018-03-06T18:03:31.851Z,6.40
2018-03-06T18:05:59.422Z,7.03
2018-03-06T18:08:27.018Z,6.73
2018-03-06T18:10:54.611Z,9.47
2018-03-06T18:13:22.977Z,14.87
2018-03-06T18:15:50.748Z,13.80
2018-03-06T18:18:18.307Z,16.87
2018-03-06T18:20:45.883Z,12.13
2018-03-06T18:23:13.504Z,10.93
2018-03-06T18:25:41.101Z,11.10
2018-03-06T18:28:08.770Z,10.00
2018-03-06T18:30:36.315Z,9.83
2018-03-06T18:33:03.894Z,9.47
2018-03-06T18:35:31.484Z,8.43
2018-03-06T18:37:59.067Z,7.93
2018-03-06T18:40:27.481Z,8.23
2018-03-06T18:42:55.070Z,7.93
2018-03-06T18:45:22.648Z,8.00
2018-03-06T18:47:50.238Z,7.33
2018-03-06T18:50:29.637Z,7.80
2018-03-06T18:52:57.389Z,7.20
2018-03-06T18:55:25.128Z,6.63
2018-03-06T18:57:53.469Z,6.87
2018-03-06T19:03:43.087Z,6.50
2018-03-06T19:06:24.278Z,6.83
2018-03-06T19:08:52.639Z,6.80
2018-03-06T19:11:20.560Z,5.77
2018-03-06T19:13:48.277Z,6.63
2018-03-06T19:16:16.659Z,6.27
2018-03-06T19:18:44.263Z,6.00
2018-03-06T19:21:11.894Z,6.43
2018-03-06T19:23:39.710Z,6.30
2018-03-06T19:26:07.362Z,6.13
2018-03-06T19:28:34.986Z,6.10
2018-03-06T19:31:02.598Z,5.93
2018-03-06T19:33:30.959Z,6.37
2018-03-06T19:35:58.552Z,6.60
2018-03-06T19:38:26.303Z,6.20
2018-03-06T19:40:54.676Z,5.97
2018-03-06T19:43:22.331Z,6.17
2018-03-06T19:45:49.927Z,5.00
2018-03-06T19:48:18.297Z,5.97
2018-03-06T19:50:46.798Z,5.50
2018-03-06T19:53:15.186Z,5.87
2018-03-06T19:55:43.548Z,5.77
2018-03-06T19:58:11.210Z,5.70
2018-03-06T20:00:38.811Z,5.13
2018-03-06T20:03:07.214Z,5.40
2018-03-06T20:05:35.028Z,5.40
2018-03-06T20:08:03.575Z,4.97
2018-03-06T20:10:31.232Z,5.37
2018-03-06T20:12:58.828Z,5.27
2018-03-06T20:15:26.605Z,5.93
2018-03-06T20:17:54.296Z,5.00
2018-03-06T20:20:21.893Z,54.13
2018-03-06T20:22:49.564Z,27.37
2018-03-06T20:25:22.898Z,14.67
2018-03-06T20:27:50.507Z,12.00
2018-03-06T20:30:24.534Z,10.67
2018-03-06T20:32:58.493Z,9.90
2018-03-06T20:35:26.294Z,8.67
2018-03-06T20:37:53.919Z,8.90
2018-03-06T20:40:27.355Z,8.60
2018-03-06T20:42:54.922Z,8.33
2018-03-06T20:45:22.505Z,7.80
2018-03-06T20:47:50.885Z,7.50
2018-03-06T20:50:19.326Z,7.50
2018-03-06T20:52:52.563Z,7.87
2018-03-06T20:55:20.333Z,7.07
2018-03-06T20:57:48.705Z,7.13
2018-03-06T21:00:16.427Z,7.07
2018-03-06T21:02:44.032Z,7.40
2018-03-06T21:05:11.661Z,7.63
2018-03-06T21:07:39.255Z,7.60
2018-03-06T21:10:06.831Z,7.77
2018-03-06T21:12:34.445Z,7.30
2018-03-06T21:15:02.012Z,7.57
2018-03-06T21:17:29.690Z,6.67
2018-03-06T21:19:57.270Z,7.40
2018-03-06T21:22:24.856Z,6.90
2018-03-06T21:24:52.473Z,6.47
2018-03-06T21:27:20.001Z,6.57
2018-03-06T21:29:47.610Z,6.40
2018-03-06T21:32:15.160Z,6.77
2018-03-06T21:34:43.499Z,6.27
2018-03-06T21:37:11.066Z,6.43
2018-03-06T21:39:38.625Z,5.93
2018-03-06T21:42:06.316Z,6.20
2018-03-06T21:44:33.890Z,6.50
2018-03-06T21:47:01.480Z,6.03
2018-03-06T21:49:29.809Z,5.70
2018-03-06T21:51:57.372Z,5.63
2018-03-06T21:54:25.303Z,5.60
2018-03-06T21:56:53.847Z,6.50
2018-03-06T21:59:21.402Z,5.80
2018-03-06T22:01:48.949Z,5.93
2018-03-06T22:04:16.579Z,5.60
2018-03-06T22:06:44.938Z,5.33
2018-03-06T22:09:12.506Z,5.30
2018-03-06T22:11:40.053Z,5.67
2018-03-06T22:14:07.627Z,5.33
2018-03-06T22:16:35.182Z,5.40
2018-03-06T22:19:02.872Z,5.47
2018-03-06T22:21:30.429Z,5.60
2018-03-06T22:23:57.992Z,4.97
2018-03-06T22:26:25.552Z,5.60
2018-03-06T22:28:53.133Z,5.40
2018-03-06T22:31:20.731Z,5.47
2018-03-06T22:33:49.078Z,5.53
2018-03-06T22:36:16.638Z,5.37
2018-03-06T22:38:44.182Z,5.23
2018-03-06T22:41:11.745Z,5.23
2018-03-06T22:43:39.332Z,5.10
2018-03-06T22:46:06.892Z,5.50
2018-03-06T22:48:34.463Z,5.30
2018-03-06T22:51:02.060Z,5.10
2018-03-06T22:53:29.615Z,5.30
2018-03-06T22:55:57.213Z,5.17
2018-03-06T22:58:24.773Z,5.13
2018-03-06T23:00:53.118Z,5.23
2018-03-06T23:03:20.813Z,5.30
2018-03-06T23:05:49.152Z,5.53
2018-03-06T23:08:16.724Z,5.27
2018-03-06T23:10:44.311Z,6.07
2018-03-06T23:13:11.885Z,5.83
2018-03-06T23:15:39.437Z,5.23
2018-03-06T23:18:07.781Z,5.80
2018-03-06T23:20:35.359Z,5.63
2018-03-06T23:23:02.951Z,5.60
2018-03-06T23:25:30.497Z,6.10
2018-03-06T23:27:58.083Z,5.77
2018-03-06T23:30:25.683Z,5.90
2018-03-06T23:32:54.374Z,5.50
2018-03-06T23:35:22.694Z,6.20
2018-03-06T23:37:50.249Z,6.27
2018-03-06T23:40:17.810Z,6.17
2018-03-06T23:42:45.525Z,5.60
2018-03-06T23:45:13.218Z,5.47
2018-03-06T23:47:41.554Z,5.20
2018-03-06T23:50:09.129Z,6.30
2018-03-06T23:52:36.698Z,6.00
2018-03-06T23:55:04.286Z,5.90
2018-03-06T23:57:31.837Z,6.27
2018-03-06T23:59:59.487Z,5.73
